sensor_id;sensor_type;location;lat;lon;timestamp;P1;durP1;ratioP1;P2;durP2;ratioP2
22332;SDS011;11334;36.986;-121.936;2023-07-29T00:01:58;11.50;;;4.10;;
22332;SDS011;11334;36.986;-121.936;2023-07-29T00:04:24;9.18;;;4.20;;
22332;SDS011;11334;36.986;-121.936;2023-07-29T00:06:50;10.82;;;3.80;;
22332;SDS011;11334;36.986;-121.936;2023-07-29T00:09:16;9.93;;;3.72;;
22332;SDS011;11334;36.986;-121.936;2023-07-29T00:11:43;7.15;;;3.00;;
22332;SDS011;11334;36.986;-121.936;2023-07-29T00:14:09;6.85;;;3.63;;
22332;SDS011;11334;36.986;-121.936;2023-07-29T00:16:35;9.45;;;4.13;;
22332;SDS011;11334;36.986;-121.936;2023-07-29T00:19:02;9.88;;;3.90;;
22332;SDS011;11334;36.986;-121.936;2023-07-29T00:21:29;12.73;;;4.32;;
22332;SDS011;11334;36.986;-121.936;2023-07-29T00:23:55;14.45;;;4.05;;
22332;SDS011;11334;36.986;-121.936;2023-07-29T00:26:26;10.65;;;4.32;;
22332;SDS011;11334;36.986;-121.936;2023-07-29T00:28:55;9.98;;;4.03;;
22332;SDS011;11334;36.986;-121.936;2023-07-29T00:31:24;9.45;;;4.07;;
22332;SDS011;11334;36.986;-121.936;2023-07-29T00:33:50;10.45;;;4.15;;
22332;SDS011;11334;36.986;-121.936;2023-07-29T00:36:18;13.52;;;4.35;;
22332;SDS011;11334;36.986;-121.936;2023-07-29T00:38:45;9.73;;;4.65;;
22332;SDS011;11334;36.986;-121.936;2023-07-29T00:41:11;10.18;;;4.25;;
22332;SDS011;11334;36.986;-121.936;2023-07-29T00:43:39;9.02;;;4.68;;
22332;SDS011;11334;36.986;-121.936;2023-07-29T00:46:05;10.63;;;4.40;;
22332;SDS011;11334;36.986;-121.936;2023-07-29T00:48:34;10.55;;;4.30;;
22332;SDS011;11334;36.986;-121.936;2023-07-29T00:51:00;10.35;;;4.40;;
22332;SDS011;11334;36.986;-121.936;2023-07-29T00:53:26;13.05;;;4.43;;
22332;SDS011;11334;36.986;-121.936;2023-07-29T00:55:53;12.18;;;4.90;;
22332;SDS011;11334;36.986;-121.936;2023-07-29T00:58:19;15.55;;;5.00;;
22332;SDS011;11334;36.986;-121.936;2023-07-29T01:00:46;15.40;;;4.50;;
22332;SDS011;11334;36.986;-121.936;2023-07-29T01:03:13;15.52;;;5.93;;
22332;SDS011;11334;36.986;-121.936;2023-07-29T01:05:45;12.98;;;5.80;;
22332;SDS011;11334;36.986;-121.936;2023-07-29T01:08:30;15.93;;;5.60;;
22332;SDS011;11334;36.986;-121.936;2023-07-29T01:11:25;16.75;;;5.25;;
22332;SDS011;11334;36.986;-121.936;2023-07-29T01:17:08;19.40;;;5.68;;
22332;SDS011;11334;36.986;-121.936;2023-07-29T01:22:08;20.38;;;6.13;;
22332;SDS011;11334;36.986;-121.936;2023-07-29T01:24:38;18.80;;;5.95;;
22332;SDS011;11334;36.986;-121.936;2023-07-29T01:27:04;18.38;;;5.45;;
22332;SDS011;11334;36.986;-121.936;2023-07-29T01:29:31;17.35;;;5.60;;
22332;SDS011;11334;36.986;-121.936;2023-07-29T01:31:59;15.68;;;5.93;;
22332;SDS011;11334;36.986;-121.936;2023-07-29T01:34:35;14.85;;;5.45;;
22332;SDS011;11334;36.986;-121.936;2023-07-29T01:37:09;15.68;;;5.15;;
22332;SDS011;11334;36.986;-121.936;2023-07-29T01:39:41;15.30;;;5.28;;
22332;SDS011;11334;36.986;-121.936;2023-07-29T01:42:11;15.43;;;5.68;;
22332;SDS011;11334;36.986;-121.936;2023-07-29T01:44:38;16.63;;;5.68;;
22332;SDS011;11334;36.986;-121.936;2023-07-29T01:47:04;15.15;;;5.40;;
22332;SDS011;11334;36.986;-121.936;2023-07-29T01:49:30;17.02;;;6.30;;
22332;SDS011;11334;36.986;-121.936;2023-07-29T01:51:57;13.38;;;4.70;;
22332;SDS011;11334;36.986;-121.936;2023-07-29T01:54:23;15.85;;;5.82;;
22332;SDS011;11334;36.986;-121.936;2023-07-29T01:56:49;15.15;;;6.20;;
22332;SDS011;11334;36.986;-121.936;2023-07-29T01:59:16;16.50;;;5.82;;
22332;SDS011;11334;36.986;-121.936;2023-07-29T02:01:43;16.52;;;5.25;;
22332;SDS011;11334;36.986;-121.936;2023-07-29T02:04:10;16.10;;;5.55;;
22332;SDS011;11334;36.986;-121.936;2023-07-29T02:06:36;16.58;;;5.32;;
22332;SDS011;11334;36.986;-121.936;2023-07-29T02:09:02;16.98;;;5.57;;
22332;SDS011;11334;36.986;-121.936;2023-07-29T02:11:30;13.85;;;6.03;;
22332;SDS011;11334;36.986;-121.936;2023-07-29T02:13:56;18.10;;;5.43;;
22332;SDS011;11334;36.986;-121.936;2023-07-29T02:16:23;15.00;;;4.88;;
22332;SDS011;11334;36.986;-121.936;2023-07-29T02:18:49;14.75;;;4.97;;
22332;SDS011;11334;36.986;-121.936;2023-07-29T02:21:16;14.77;;;5.80;;
22332;SDS011;11334;36.986;-121.936;2023-07-29T02:23:42;15.55;;;4.75;;
22332;SDS011;11334;36.986;-121.936;2023-07-29T02:26:09;20.48;;;5.60;;
22332;SDS011;11334;36.986;-121.936;2023-07-29T02:28:36;15.70;;;6.28;;
22332;SDS011;11334;36.986;-121.936;2023-07-29T02:31:35;17.20;;;6.63;;
22332;SDS011;11334;36.986;-121.936;2023-07-29T02:33:54;22.15;;;6.50;;
22332;SDS011;11334;36.986;-121.936;2023-07-29T02:36:21;20.17;;;6.38;;
22332;SDS011;11334;36.986;-121.936;2023-07-29T02:38:47;11.00;;;5.53;;
22332;SDS011;11334;36.986;-121.936;2023-07-29T02:41:13;19.98;;;6.80;;
22332;SDS011;11334;36.986;-121.936;2023-07-29T02:43:42;20.50;;;6.13;;
22332;SDS011;11334;36.986;-121.936;2023-07-29T02:46:09;21.02;;;7.80;;
22332;SDS011;11334;36.986;-121.936;2023-07-29T02:48:35;21.15;;;6.55;;
22332;SDS011;11334;36.986;-121.936;2023-07-29T02:51:04;21.15;;;8.40;;
22332;SDS011;11334;36.986;-121.936;2023-07-29T02:53:30;23.05;;;8.65;;
22332;SDS011;11334;36.986;-121.936;2023-07-29T02:55:56;18.88;;;8.80;;
22332;SDS011;11334;36.986;-121.936;2023-07-29T02:58:23;23.20;;;7.60;;
22332;SDS011;11334;36.986;-121.936;2023-07-29T03:00:51;24.20;;;8.27;;
22332;SDS011;11334;36.986;-121.936;2023-07-29T03:03:17;24.13;;;6.20;;
22332;SDS011;11334;36.986;-121.936;2023-07-29T03:05:44;24.85;;;8.95;;
22332;SDS011;11334;36.986;-121.936;2023-07-29T03:08:11;21.50;;;7.22;;
22332;SDS011;11334;36.986;-121.936;2023-07-29T03:10:38;22.17;;;8.80;;
22332;SDS011;11334;36.986;-121.936;2023-07-29T03:13:04;26.00;;;8.85;;
22332;SDS011;11334;36.986;-121.936;2023-07-29T03:15:31;26.20;;;7.80;;
22332;SDS011;11334;36.986;-121.936;2023-07-29T03:17:59;23.70;;;8.43;;
22332;SDS011;11334;36.986;-121.936;2023-07-29T03:20:25;24.95;;;7.82;;
22332;SDS011;11334;36.986;-121.936;2023-07-29T03:22:51;27.98;;;7.53;;
22332;SDS011;11334;36.986;-121.936;2023-07-29T03:25:18;20.33;;;7.07;;
22332;SDS011;11334;36.986;-121.936;2023-07-29T03:27:44;20.58;;;6.10;;
22332;SDS011;11334;36.986;-121.936;2023-07-29T03:30:10;22.50;;;7.63;;
22332;SDS011;11334;36.986;-121.936;2023-07-29T03:32:39;22.90;;;6.50;;
22332;SDS011;11334;36.986;-121.936;2023-07-29T03:35:08;21.00;;;6.78;;
22332;SDS011;11334;36.986;-121.936;2023-07-29T03:37:35;24.88;;;6.55;;
22332;SDS011;11334;36.986;-121.936;2023-07-29T03:40:01;21.58;;;5.97;;
22332;SDS011;11334;36.986;-121.936;2023-07-29T03:42:28;13.90;;;5.72;;
22332;SDS011;11334;36.986;-121.936;2023-07-29T03:44:54;18.00;;;6.20;;
22332;SDS011;11334;36.986;-121.936;2023-07-29T03:47:20;21.65;;;5.97;;
22332;SDS011;11334;36.986;-121.936;2023-07-29T03:49:47;19.10;;;6.35;;
22332;SDS011;11334;36.986;-121.936;2023-07-29T03:52:13;17.17;;;6.15;;
22332;SDS011;11334;36.986;-121.936;2023-07-29T03:54:39;20.88;;;5.45;;
22332;SDS011;11334;36.986;-121.936;2023-07-29T03:57:06;26.60;;;6.05;;
22332;SDS011;11334;36.986;-121.936;2023-07-29T03:59:32;20.83;;;6.60;;
22332;SDS011;11334;36.986;-121.936;2023-07-29T04:01:59;19.85;;;5.65;;
22332;SDS011;11334;36.986;-121.936;2023-07-29T04:04:25;22.42;;;5.82;;
22332;SDS011;11334;36.986;-121.936;2023-07-29T04:06:51;19.13;;;5.78;;
22332;SDS011;11334;36.986;-121.936;2023-07-29T04:09:18;21.08;;;6.07;;
22332;SDS011;11334;36.986;-121.936;2023-07-29T04:11:44;21.33;;;5.90;;
22332;SDS011;11334;36.986;-121.936;2023-07-29T04:14:10;20.52;;;6.10;;
22332;SDS011;11334;36.986;-121.936;2023-07-29T04:16:36;20.85;;;6.03;;
22332;SDS011;11334;36.986;-121.936;2023-07-29T04:19:03;21.23;;;6.30;;
22332;SDS011;11334;36.986;-121.936;2023-07-29T04:21:29;20.88;;;6.00;;
22332;SDS011;11334;36.986;-121.936;2023-07-29T04:23:55;20.77;;;5.50;;
22332;SDS011;11334;36.986;-121.936;2023-07-29T04:26:21;18.58;;;6.80;;
22332;SDS011;11334;36.986;-121.936;2023-07-29T04:28:48;16.83;;;5.53;;
22332;SDS011;11334;36.986;-121.936;2023-07-29T04:31:14;23.48;;;6.03;;
22332;SDS011;11334;36.986;-121.936;2023-07-29T04:33:40;18.98;;;5.93;;
22332;SDS011;11334;36.986;-121.936;2023-07-29T04:36:06;17.15;;;5.97;;
22332;SDS011;11334;36.986;-121.936;2023-07-29T04:38:33;21.10;;;5.22;;
22332;SDS011;11334;36.986;-121.936;2023-07-29T04:40:59;23.70;;;5.82;;
22332;SDS011;11334;36.986;-121.936;2023-07-29T04:43:32;19.77;;;5.72;;
22332;SDS011;11334;36.986;-121.936;2023-07-29T04:45:59;15.43;;;5.85;;
22332;SDS011;11334;36.986;-121.936;2023-07-29T04:48:25;16.80;;;5.75;;
22332;SDS011;11334;36.986;-121.936;2023-07-29T04:50:51;22.67;;;5.57;;
22332;SDS011;11334;36.986;-121.936;2023-07-29T04:53:17;16.92;;;6.00;;
22332;SDS011;11334;36.986;-121.936;2023-07-29T04:55:44;17.65;;;6.03;;
22332;SDS011;11334;36.986;-121.936;2023-07-29T04:58:11;19.55;;;5.97;;
22332;SDS011;11334;36.986;-121.936;2023-07-29T05:00:39;18.90;;;6.38;;
22332;SDS011;11334;36.986;-121.936;2023-07-29T05:03:06;22.55;;;5.53;;
22332;SDS011;11334;36.986;-121.936;2023-07-29T05:05:32;17.17;;;5.13;;
22332;SDS011;11334;36.986;-121.936;2023-07-29T05:07:58;21.13;;;5.78;;
22332;SDS011;11334;36.986;-121.936;2023-07-29T05:10:24;14.40;;;5.38;;
22332;SDS011;11334;36.986;-121.936;2023-07-29T05:12:51;22.50;;;6.50;;
22332;SDS011;11334;36.986;-121.936;2023-07-29T05:15:17;20.40;;;6.22;;
22332;SDS011;11334;36.986;-121.936;2023-07-29T05:17:44;29.50;;;6.55;;
22332;SDS011;11334;36.986;-121.936;2023-07-29T05:20:10;24.40;;;6.22;;
22332;SDS011;11334;36.986;-121.936;2023-07-29T05:22:37;20.58;;;5.53;;
22332;SDS011;11334;36.986;-121.936;2023-07-29T05:25:03;21.42;;;6.60;;
22332;SDS011;11334;36.986;-121.936;2023-07-29T05:27:29;26.23;;;6.18;;
22332;SDS011;11334;36.986;-121.936;2023-07-29T05:29:56;19.73;;;5.90;;
22332;SDS011;11334;36.986;-121.936;2023-07-29T05:32:22;18.00;;;5.78;;
22332;SDS011;11334;36.986;-121.936;2023-07-29T05:34:48;21.08;;;6.25;;
22332;SDS011;11334;36.986;-121.936;2023-07-29T05:37:14;16.33;;;5.80;;
22332;SDS011;11334;36.986;-121.936;2023-07-29T05:39:41;19.67;;;6.40;;
22332;SDS011;11334;36.986;-121.936;2023-07-29T05:42:07;21.27;;;6.70;;
22332;SDS011;11334;36.986;-121.936;2023-07-29T05:44:33;18.73;;;5.65;;
22332;SDS011;11334;36.986;-121.936;2023-07-29T05:46:59;17.77;;;5.32;;
22332;SDS011;11334;36.986;-121.936;2023-07-29T05:49:26;21.10;;;5.72;;
22332;SDS011;11334;36.986;-121.936;2023-07-29T05:51:52;22.20;;;6.95;;
22332;SDS011;11334;36.986;-121.936;2023-07-29T05:54:18;20.10;;;5.85;;
22332;SDS011;11334;36.986;-121.936;2023-07-29T05:56:45;18.33;;;6.03;;
22332;SDS011;11334;36.986;-121.936;2023-07-29T05:59:11;18.23;;;5.80;;
22332;SDS011;11334;36.986;-121.936;2023-07-29T06:01:37;14.23;;;5.25;;
22332;SDS011;11334;36.986;-121.936;2023-07-29T06:04:04;18.60;;;5.88;;
22332;SDS011;11334;36.986;-121.936;2023-07-29T06:06:30;18.98;;;5.20;;
22332;SDS011;11334;36.986;-121.936;2023-07-29T06:08:56;17.48;;;5.05;;
22332;SDS011;11334;36.986;-121.936;2023-07-29T06:11:23;20.67;;;6.82;;
22332;SDS011;11334;36.986;-121.936;2023-07-29T06:13:49;16.92;;;5.40;;
22332;SDS011;11334;36.986;-121.936;2023-07-29T06:16:15;18.95;;;5.57;;
22332;SDS011;11334;36.986;-121.936;2023-07-29T06:18:42;20.83;;;6.03;;
22332;SDS011;11334;36.986;-121.936;2023-07-29T06:21:08;19.60;;;5.97;;
22332;SDS011;11334;36.986;-121.936;2023-07-29T06:23:37;20.00;;;5.95;;
22332;SDS011;11334;36.986;-121.936;2023-07-29T06:26:03;16.20;;;5.90;;
22332;SDS011;11334;36.986;-121.936;2023-07-29T06:28:31;20.67;;;6.80;;
22332;SDS011;11334;36.986;-121.936;2023-07-29T06:30:57;22.40;;;6.30;;
22332;SDS011;11334;36.986;-121.936;2023-07-29T06:33:23;18.70;;;6.15;;
22332;SDS011;11334;36.986;-121.936;2023-07-29T06:35:49;17.67;;;6.00;;
22332;SDS011;11334;36.986;-121.936;2023-07-29T06:38:15;18.30;;;6.43;;
22332;SDS011;11334;36.986;-121.936;2023-07-29T06:40:47;17.10;;;5.75;;
22332;SDS011;11334;36.986;-121.936;2023-07-29T06:43:14;18.10;;;5.68;;
22332;SDS011;11334;36.986;-121.936;2023-07-29T06:45:40;14.43;;;6.00;;
22332;SDS011;11334;36.986;-121.936;2023-07-29T06:48:06;16.25;;;5.95;;
22332;SDS011;11334;36.986;-121.936;2023-07-29T06:50:32;18.25;;;5.25;;
22332;SDS011;11334;36.986;-121.936;2023-07-29T06:52:59;21.10;;;6.18;;
22332;SDS011;11334;36.986;-121.936;2023-07-29T06:55:25;16.52;;;4.97;;
22332;SDS011;11334;36.986;-121.936;2023-07-29T06:57:51;20.60;;;6.03;;
22332;SDS011;11334;36.986;-121.936;2023-07-29T07:00:18;25.10;;;6.05;;
22332;SDS011;11334;36.986;-121.936;2023-07-29T07:02:44;22.15;;;7.60;;
22332;SDS011;11334;36.986;-121.936;2023-07-29T07:05:10;13.30;;;5.85;;
22332;SDS011;11334;36.986;-121.936;2023-07-29T07:07:36;15.82;;;5.97;;
22332;SDS011;11334;36.986;-121.936;2023-07-29T07:10:03;25.50;;;6.90;;
22332;SDS011;11334;36.986;-121.936;2023-07-29T07:12:29;18.90;;;5.45;;
22332;SDS011;11334;36.986;-121.936;2023-07-29T07:14:56;18.42;;;5.93;;
22332;SDS011;11334;36.986;-121.936;2023-07-29T07:17:23;20.27;;;5.93;;
22332;SDS011;11334;36.986;-121.936;2023-07-29T07:19:49;18.35;;;5.82;;
22332;SDS011;11334;36.986;-121.936;2023-07-29T07:22:16;21.15;;;5.80;;
22332;SDS011;11334;36.986;-121.936;2023-07-29T07:24:42;16.55;;;5.05;;
22332;SDS011;11334;36.986;-121.936;2023-07-29T07:27:08;23.05;;;6.53;;
22332;SDS011;11334;36.986;-121.936;2023-07-29T07:29:34;17.58;;;6.28;;
22332;SDS011;11334;36.986;-121.936;2023-07-29T07:32:01;22.15;;;7.20;;
22332;SDS011;11334;36.986;-121.936;2023-07-29T07:34:27;15.60;;;7.65;;
22332;SDS011;11334;36.986;-121.936;2023-07-29T07:36:53;27.15;;;7.65;;
22332;SDS011;11334;36.986;-121.936;2023-07-29T07:39:20;19.20;;;7.32;;
22332;SDS011;11334;36.986;-121.936;2023-07-29T07:41:46;18.65;;;6.05;;
22332;SDS011;11334;36.986;-121.936;2023-07-29T07:44:13;18.33;;;6.18;;
22332;SDS011;11334;36.986;-121.936;2023-07-29T07:46:41;15.63;;;4.70;;
22332;SDS011;11334;36.986;-121.936;2023-07-29T07:49:07;18.25;;;5.70;;
22332;SDS011;11334;36.986;-121.936;2023-07-29T07:51:33;18.80;;;5.75;;
22332;SDS011;11334;36.986;-121.936;2023-07-29T07:54:00;22.83;;;6.88;;
22332;SDS011;11334;36.986;-121.936;2023-07-29T07:56:26;21.25;;;6.03;;
22332;SDS011;11334;36.986;-121.936;2023-07-29T07:58:53;22.73;;;5.57;;
22332;SDS011;11334;36.986;-121.936;2023-07-29T08:01:19;16.98;;;5.45;;
22332;SDS011;11334;36.986;-121.936;2023-07-29T08:03:45;17.20;;;5.53;;
22332;SDS011;11334;36.986;-121.936;2023-07-29T08:06:11;18.17;;;4.65;;
22332;SDS011;11334;36.986;-121.936;2023-07-29T08:08:37;14.40;;;5.47;;
22332;SDS011;11334;36.986;-121.936;2023-07-29T08:11:04;14.93;;;5.55;;
22332;SDS011;11334;36.986;-121.936;2023-07-29T08:13:30;13.13;;;5.05;;
22332;SDS011;11334;36.986;-121.936;2023-07-29T08:15:57;17.27;;;5.55;;
22332;SDS011;11334;36.986;-121.936;2023-07-29T08:18:23;21.55;;;6.18;;
22332;SDS011;11334;36.986;-121.936;2023-07-29T08:20:56;13.18;;;5.55;;
22332;SDS011;11334;36.986;-121.936;2023-07-29T08:23:26;14.95;;;5.55;;
22332;SDS011;11334;36.986;-121.936;2023-07-29T08:25:53;16.95;;;5.45;;
22332;SDS011;11334;36.986;-121.936;2023-07-29T08:28:22;16.20;;;5.13;;
22332;SDS011;11334;36.986;-121.936;2023-07-29T08:30:48;16.63;;;5.97;;
22332;SDS011;11334;36.986;-121.936;2023-07-29T08:33:15;14.25;;;5.40;;
22332;SDS011;11334;36.986;-121.936;2023-07-29T08:35:41;20.38;;;6.20;;
22332;SDS011;11334;36.986;-121.936;2023-07-29T08:38:07;14.68;;;5.18;;
22332;SDS011;11334;36.986;-121.936;2023-07-29T08:40:34;15.93;;;5.43;;
22332;SDS011;11334;36.986;-121.936;2023-07-29T08:43:04;18.77;;;6.03;;
22332;SDS011;11334;36.986;-121.936;2023-07-29T08:45:33;18.35;;;5.55;;
22332;SDS011;11334;36.986;-121.936;2023-07-29T08:48:06;14.95;;;5.65;;
22332;SDS011;11334;36.986;-121.936;2023-07-29T08:50:35;14.55;;;4.95;;
22332;SDS011;11334;36.986;-121.936;2023-07-29T08:53:05;12.85;;;5.03;;
22332;SDS011;11334;36.986;-121.936;2023-07-29T08:55:32;17.40;;;5.32;;
22332;SDS011;11334;36.986;-121.936;2023-07-29T08:57:59;16.40;;;4.70;;
22332;SDS011;11334;36.986;-121.936;2023-07-29T09:00:26;18.88;;;5.25;;
22332;SDS011;11334;36.986;-121.936;2023-07-29T09:02:53;19.02;;;5.30;;
22332;SDS011;11334;36.986;-121.936;2023-07-29T09:05:22;14.30;;;4.57;;
22332;SDS011;11334;36.986;-121.936;2023-07-29T09:07:49;10.18;;;4.72;;
22332;SDS011;11334;36.986;-121.936;2023-07-29T09:10:21;10.88;;;4.32;;
22332;SDS011;11334;36.986;-121.936;2023-07-29T09:12:48;15.63;;;5.88;;
22332;SDS011;11334;36.986;-121.936;2023-07-29T09:15:25;15.13;;;5.10;;
22332;SDS011;11334;36.986;-121.936;2023-07-29T09:17:53;13.65;;;4.63;;
22332;SDS011;11334;36.986;-121.936;2023-07-29T09:20:24;15.82;;;4.47;;
22332;SDS011;11334;36.986;-121.936;2023-07-29T09:22:57;14.57;;;4.90;;
22332;SDS011;11334;36.986;-121.936;2023-07-29T09:25:28;17.83;;;5.25;;
22332;SDS011;11334;36.986;-121.936;2023-07-29T09:27:59;14.82;;;5.25;;
22332;SDS011;11334;36.986;-121.936;2023-07-29T09:30:26;15.85;;;4.97;;
22332;SDS011;11334;36.986;-121.936;2023-07-29T09:32:56;15.85;;;5.30;;
22332;SDS011;11334;36.986;-121.936;2023-07-29T09:35:23;12.93;;;4.50;;
22332;SDS011;11334;36.986;-121.936;2023-07-29T09:37:53;13.77;;;5.00;;
22332;SDS011;11334;36.986;-121.936;2023-07-29T09:40:19;14.68;;;5.10;;
22332;SDS011;11334;36.986;-121.936;2023-07-29T09:42:52;13.32;;;5.78;;
22332;SDS011;11334;36.986;-121.936;2023-07-29T09:45:20;15.93;;;5.32;;
22332;SDS011;11334;36.986;-121.936;2023-07-29T09:47:51;12.60;;;4.38;;
22332;SDS011;11334;36.986;-121.936;2023-07-29T09:50:18;14.65;;;4.40;;
22332;SDS011;11334;36.986;-121.936;2023-07-29T09:52:44;13.38;;;3.78;;
22332;SDS011;11334;36.986;-121.936;2023-07-29T09:55:13;16.58;;;5.13;;
22332;SDS011;11334;36.986;-121.936;2023-07-29T09:57:44;15.25;;;4.78;;
22332;SDS011;11334;36.986;-121.936;2023-07-29T10:00:11;14.52;;;4.85;;
22332;SDS011;11334;36.986;-121.936;2023-07-29T10:02:42;14.70;;;4.75;;
22332;SDS011;11334;36.986;-121.936;2023-07-29T10:05:09;11.65;;;4.30;;
22332;SDS011;11334;36.986;-121.936;2023-07-29T10:07:36;12.70;;;4.80;;
22332;SDS011;11334;36.986;-121.936;2023-07-29T10:10:03;9.38;;;4.28;;
22332;SDS011;11334;36.986;-121.936;2023-07-29T10:12:31;12.82;;;4.35;;
22332;SDS011;11334;36.986;-121.936;2023-07-29T10:15:02;8.57;;;4.13;;
22332;SDS011;11334;36.986;-121.936;2023-07-29T10:17:30;14.65;;;4.85;;
22332;SDS011;11334;36.986;-121.936;2023-07-29T10:20:00;14.15;;;4.65;;
22332;SDS011;11334;36.986;-121.936;2023-07-29T10:22:28;13.65;;;4.03;;
22332;SDS011;11334;36.986;-121.936;2023-07-29T10:24:59;13.25;;;5.07;;
22332;SDS011;11334;36.986;-121.936;2023-07-29T10:27:56;15.45;;;4.68;;
22332;SDS011;11334;36.986;-121.936;2023-07-29T10:30:29;11.00;;;4.72;;
22332;SDS011;11334;36.986;-121.936;2023-07-29T10:33:03;13.30;;;4.80;;
22332;SDS011;11334;36.986;-121.936;2023-07-29T10:35:32;14.93;;;5.07;;
22332;SDS011;11334;36.986;-121.936;2023-07-29T10:38:00;11.88;;;4.63;;
22332;SDS011;11334;36.986;-121.936;2023-07-29T10:40:46;10.10;;;4.10;;
22332;SDS011;11334;36.986;-121.936;2023-07-29T10:43:34;16.42;;;4.93;;
22332;SDS011;11334;36.986;-121.936;2023-07-29T10:46:21;11.15;;;4.95;;
22332;SDS011;11334;36.986;-121.936;2023-07-29T10:48:55;11.43;;;4.80;;
22332;SDS011;11334;36.986;-121.936;2023-07-29T10:53:56;10.95;;;4.28;;
22332;SDS011;11334;36.986;-121.936;2023-07-29T10:56:29;12.38;;;4.47;;
22332;SDS011;11334;36.986;-121.936;2023-07-29T10:59:42;10.10;;;4.15;;
22332;SDS011;11334;36.986;-121.936;2023-07-29T11:01:59;11.18;;;5.15;;
22332;SDS011;11334;36.986;-121.936;2023-07-29T11:04:27;11.55;;;4.60;;
22332;SDS011;11334;36.986;-121.936;2023-07-29T11:15:11;8.98;;;4.25;;
22332;SDS011;11334;36.986;-121.936;2023-07-29T11:17:43;11.07;;;4.75;;
22332;SDS011;11334;36.986;-121.936;2023-07-29T11:20:19;15.30;;;4.70;;
22332;SDS011;11334;36.986;-121.936;2023-07-29T11:22:47;10.75;;;4.28;;
22332;SDS011;11334;36.986;-121.936;2023-07-29T11:25:16;12.73;;;4.45;;
22332;SDS011;11334;36.986;-121.936;2023-07-29T11:27:44;10.40;;;4.43;;
22332;SDS011;11334;36.986;-121.936;2023-07-29T11:30:11;11.00;;;4.40;;
22332;SDS011;11334;36.986;-121.936;2023-07-29T11:32:40;12.70;;;4.93;;
22332;SDS011;11334;36.986;-121.936;2023-07-29T11:35:15;10.27;;;4.38;;
22332;SDS011;11334;36.986;-121.936;2023-07-29T11:37:44;15.00;;;4.75;;
22332;SDS011;11334;36.986;-121.936;2023-07-29T11:40:15;16.20;;;4.93;;
22332;SDS011;11334;36.986;-121.936;2023-07-29T11:42:42;12.35;;;4.63;;
22332;SDS011;11334;36.986;-121.936;2023-07-29T11:45:09;11.05;;;4.93;;
22332;SDS011;11334;36.986;-121.936;2023-07-29T11:47:36;9.20;;;4.03;;
22332;SDS011;11334;36.986;-121.936;2023-07-29T11:50:03;13.35;;;4.63;;
22332;SDS011;11334;36.986;-121.936;2023-07-29T11:52:35;10.02;;;4.18;;
22332;SDS011;11334;36.986;-121.936;2023-07-29T11:55:03;13.00;;;4.50;;
22332;SDS011;11334;36.986;-121.936;2023-07-29T11:57:30;9.93;;;4.10;;
22332;SDS011;11334;36.986;-121.936;2023-07-29T12:00:04;14.38;;;4.30;;
22332;SDS011;11334;36.986;-121.936;2023-07-29T12:02:32;8.45;;;4.35;;
22332;SDS011;11334;36.986;-121.936;2023-07-29T12:05:01;13.73;;;4.45;;
22332;SDS011;11334;36.986;-121.936;2023-07-29T12:07:30;12.57;;;4.20;;
22332;SDS011;11334;36.986;-121.936;2023-07-29T12:09:58;11.15;;;4.60;;
22332;SDS011;11334;36.986;-121.936;2023-07-29T12:12:25;9.38;;;4.25;;
22332;SDS011;11334;36.986;-121.936;2023-07-29T12:14:53;17.23;;;5.03;;
22332;SDS011;11334;36.986;-121.936;2023-07-29T12:17:20;12.07;;;4.75;;
22332;SDS011;11334;36.986;-121.936;2023-07-29T12:19:46;9.55;;;4.22;;
22332;SDS011;11334;36.986;-121.936;2023-07-29T12:22:17;11.07;;;3.90;;
22332;SDS011;11334;36.986;-121.936;2023-07-29T12:24:45;9.63;;;4.00;;
22332;SDS011;11334;36.986;-121.936;2023-07-29T12:27:12;8.48;;;3.90;;
22332;SDS011;11334;36.986;-121.936;2023-07-29T12:29:42;13.25;;;4.60;;
22332;SDS011;11334;36.986;-121.936;2023-07-29T12:32:09;11.55;;;3.83;;
22332;SDS011;11334;36.986;-121.936;2023-07-29T12:34:37;9.88;;;4.30;;
22332;SDS011;11334;36.986;-121.936;2023-07-29T12:37:05;7.88;;;3.65;;
22332;SDS011;11334;36.986;-121.936;2023-07-29T12:39:32;9.15;;;4.22;;
22332;SDS011;11334;36.986;-121.936;2023-07-29T12:42:00;8.38;;;3.65;;
22332;SDS011;11334;36.986;-121.936;2023-07-29T12:44:34;10.57;;;4.30;;
22332;SDS011;11334;36.986;-121.936;2023-07-29T12:47:01;13.70;;;4.18;;
22332;SDS011;11334;36.986;-121.936;2023-07-29T12:49:29;10.48;;;4.60;;
22332;SDS011;11334;36.986;-121.936;2023-07-29T12:51:56;9.48;;;4.05;;
22332;SDS011;11334;36.986;-121.936;2023-07-29T12:54:22;7.90;;;4.13;;
22332;SDS011;11334;36.986;-121.936;2023-07-29T12:56:49;11.55;;;4.55;;
22332;SDS011;11334;36.986;-121.936;2023-07-29T12:59:15;8.60;;;3.85;;
22332;SDS011;11334;36.986;-121.936;2023-07-29T13:01:42;9.48;;;3.90;;
22332;SDS011;11334;36.986;-121.936;2023-07-29T13:04:09;8.93;;;3.90;;
22332;SDS011;11334;36.986;-121.936;2023-07-29T13:06:36;8.73;;;3.75;;
22332;SDS011;11334;36.986;-121.936;2023-07-29T13:09:03;9.02;;;3.95;;
22332;SDS011;11334;36.986;-121.936;2023-07-29T13:11:30;12.55;;;4.20;;
22332;SDS011;11334;36.986;-121.936;2023-07-29T13:14:00;8.57;;;3.90;;
22332;SDS011;11334;36.986;-121.936;2023-07-29T13:16:27;6.75;;;4.45;;
22332;SDS011;11334;36.986;-121.936;2023-07-29T13:18:54;8.13;;;3.72;;
22332;SDS011;11334;36.986;-121.936;2023-07-29T13:21:21;11.77;;;4.20;;
22332;SDS011;11334;36.986;-121.936;2023-07-29T13:23:47;11.70;;;4.40;;
22332;SDS011;11334;36.986;-121.936;2023-07-29T13:26:13;11.88;;;3.85;;
22332;SDS011;11334;36.986;-121.936;2023-07-29T13:28:40;8.25;;;3.72;;
22332;SDS011;11334;36.986;-121.936;2023-07-29T13:31:06;10.02;;;3.72;;
22332;SDS011;11334;36.986;-121.936;2023-07-29T13:33:32;8.30;;;3.83;;
22332;SDS011;11334;36.986;-121.936;2023-07-29T13:35:59;11.20;;;4.15;;
22332;SDS011;11334;36.986;-121.936;2023-07-29T13:38:28;9.65;;;3.75;;
22332;SDS011;11334;36.986;-121.936;2023-07-29T13:40:55;9.88;;;3.67;;
22332;SDS011;11334;36.986;-121.936;2023-07-29T13:43:24;7.85;;;4.32;;
22332;SDS011;11334;36.986;-121.936;2023-07-29T13:45:50;11.15;;;4.07;;
22332;SDS011;11334;36.986;-121.936;2023-07-29T13:48:17;10.63;;;3.65;;
22332;SDS011;11334;36.986;-121.936;2023-07-29T13:50:44;7.65;;;3.97;;
22332;SDS011;11334;36.986;-121.936;2023-07-29T13:53:11;8.50;;;3.92;;
22332;SDS011;11334;36.986;-121.936;2023-07-29T13:55:37;10.85;;;4.25;;
22332;SDS011;11334;36.986;-121.936;2023-07-29T13:58:03;9.02;;;4.47;;
22332;SDS011;11334;36.986;-121.936;2023-07-29T14:00:29;9.82;;;4.13;;
22332;SDS011;11334;36.986;-121.936;2023-07-29T14:02:56;13.20;;;4.28;;
22332;SDS011;11334;36.986;-121.936;2023-07-29T14:05:22;8.43;;;3.65;;
22332;SDS011;11334;36.986;-121.936;2023-07-29T14:07:48;7.78;;;3.20;;
22332;SDS011;11334;36.986;-121.936;2023-07-29T14:10:14;8.80;;;4.05;;
22332;SDS011;11334;36.986;-121.936;2023-07-29T14:12:40;10.63;;;4.43;;
22332;SDS011;11334;36.986;-121.936;2023-07-29T14:15:07;9.45;;;3.78;;
22332;SDS011;11334;36.986;-121.936;2023-07-29T14:17:33;10.93;;;4.20;;
22332;SDS011;11334;36.986;-121.936;2023-07-29T14:20:00;9.00;;;4.47;;